sensor_id;sensor_type;location;lat;lon;timestamp;pressure;altitude;pressure_sealevel;temperature;humidity
30081;BME280;16902;50.816;12.828;2022-11-15T00:00:52;97686.22;;;1.51;100.00
30081;BME280;16902;50.816;12.828;2022-11-15T00:06:13;97686.81;;;1.43;100.00
30081;BME280;16902;50.816;12.828;2022-11-15T00:11:33;97687.69;;;1.33;100.00
30081;BME280;16902;50.816;12.828;2022-11-15T00:16:53;97688.25;;;1.36;100.00
30081;BME280;16902;50.816;12.828;2022-11-15T00:22:14;97682.94;;;1.28;100.00
30081;BME280;16902;50.816;12.828;2022-11-15T00:27:34;97680.97;;;1.20;100.00
30081;BME280;16902;50.816;12.828;2022-11-15T00:32:55;97681.34;;;1.16;100.00
30081;BME280;16902;50.816;12.828;2022-11-15T00:38:15;97684.41;;;1.10;100.00
30081;BME280;16902;50.816;12.828;2022-11-15T00:43:35;97688.75;;;0.98;100.00
30081;BME280;16902;50.816;12.828;2022-11-15T00:48:56;97690.59;;;0.96;100.00
30081;BME280;16902;50.816;12.828;2022-11-15T00:54:16;97685.28;;;0.88;100.00
30081;BME280;16902;50.816;12.828;2022-11-15T00:59:37;97674.09;;;0.89;100.00
30081;BME280;16902;50.816;12.828;2022-11-15T01:04:57;97671.00;;;0.74;100.00
30081;BME280;16902;50.816;12.828;2022-11-15T01:10:18;97664.00;;;0.76;100.00
30081;BME280;16902;50.816;12.828;2022-11-15T01:15:39;97660.84;;;0.72;100.00
30081;BME280;16902;50.816;12.828;2022-11-15T01:21:04;97652.34;;;0.72;100.00
30081;BME280;16902;50.816;12.828;2022-11-15T01:26:25;97643.19;;;0.69;100.00
30081;BME280;16902;50.816;12.828;2022-11-15T01:31:45;97635.13;;;0.63;100.00
30081;BME280;16902;50.816;12.828;2022-11-15T01:37:06;97630.81;;;0.74;100.00
30081;BME280;16902;50.816;12.828;2022-11-15T01:42:26;97627.00;;;0.69;100.00
30081;BME280;16902;50.816;12.828;2022-11-15T01:47:51;97634.09;;;0.65;100.00
30081;BME280;16902;50.816;12.828;2022-11-15T01:53:12;97618.16;;;0.62;100.00
30081;BME280;16902;50.816;12.828;2022-11-15T01:58:34;97611.44;;;0.38;100.00
30081;BME280;16902;50.816;12.828;2022-11-15T02:03:59;97606.69;;;0.45;100.00
30081;BME280;16902;50.816;12.828;2022-11-15T02:09:20;97609.34;;;0.55;100.00
30081;BME280;16902;50.816;12.828;2022-11-15T02:14:42;97608.75;;;0.51;100.00
30081;BME280;16902;50.816;12.828;2022-11-15T02:26:18;97609.72;;;0.39;100.00
30081;BME280;16902;50.816;12.828;2022-11-15T02:32:02;97600.44;;;0.27;100.00
30081;BME280;16902;50.816;12.828;2022-11-15T02:37:44;97594.03;;;0.21;100.00
30081;BME280;16902;50.816;12.828;2022-11-15T02:43:14;97585.66;;;0.19;100.00
30081;BME280;16902;50.816;12.828;2022-11-15T02:48:57;97578.19;;;0.27;100.00
30081;BME280;16902;50.816;12.828;2022-11-15T02:54:22;97580.16;;;0.23;100.00
30081;BME280;16902;50.816;12.828;2022-11-15T03:06:10;97576.69;;;0.24;100.00
30081;BME280;16902;50.816;12.828;2022-11-15T03:11:38;97572.50;;;0.23;100.00
30081;BME280;16902;50.816;12.828;2022-11-15T03:22:45;97559.94;;;0.20;100.00
30081;BME280;16902;50.816;12.828;2022-11-15T03:28:09;97555.41;;;0.13;100.00
30081;BME280;16902;50.816;12.828;2022-11-15T03:33:31;97563.91;;;0.13;100.00
30081;BME280;16902;50.816;12.828;2022-11-15T03:38:54;97570.53;;;0.16;100.00
30081;BME280;16902;50.816;12.828;2022-11-15T03:44:46;97567.72;;;0.19;100.00
30081;BME280;16902;50.816;12.828;2022-11-15T03:50:12;97568.94;;;0.15;100.00
30081;BME280;16902;50.816;12.828;2022-11-15T03:55:33;97562.50;;;0.09;100.00
30081;BME280;16902;50.816;12.828;2022-11-15T04:00:53;97566.47;;;0.13;100.00
30081;BME280;16902;50.816;12.828;2022-11-15T04:06:14;97556.59;;;0.20;100.00
30081;BME280;16902;50.816;12.828;2022-11-15T04:11:34;97559.50;;;0.15;100.00
30081;BME280;16902;50.816;12.828;2022-11-15T04:16:55;97558.34;;;0.08;100.00
30081;BME280;16902;50.816;12.828;2022-11-15T04:22:15;97558.69;;;0.04;100.00
30081;BME280;16902;50.816;12.828;2022-11-15T04:27:53;97560.78;;;-0.02;100.00
30081;BME280;16902;50.816;12.828;2022-11-15T04:33:14;97558.69;;;0.04;100.00
30081;BME280;16902;50.816;12.828;2022-11-15T04:38:36;97554.53;;;-0.09;100.00
30081;BME280;16902;50.816;12.828;2022-11-15T04:43:57;97546.94;;;-0.10;100.00
30081;BME280;16902;50.816;12.828;2022-11-15T04:49:17;97542.53;;;0.03;100.00
30081;BME280;16902;50.816;12.828;2022-11-15T04:54:37;97532.41;;;0.02;100.00
30081;BME280;16902;50.816;12.828;2022-11-15T04:59:58;97536.25;;;-0.04;100.00
30081;BME280;16902;50.816;12.828;2022-11-15T05:05:18;97535.91;;;0.01;100.00
30081;BME280;16902;50.816;12.828;2022-11-15T05:10:38;97543.09;;;0.07;100.00
30081;BME280;16902;50.816;12.828;2022-11-15T05:15:59;97531.59;;;0.01;100.00
30081;BME280;16902;50.816;12.828;2022-11-15T05:21:19;97529.50;;;-0.05;100.00
30081;BME280;16902;50.816;12.828;2022-11-15T05:26:39;97523.66;;;0.04;100.00
30081;BME280;16902;50.816;12.828;2022-11-15T05:32:00;97515.31;;;0.02;100.00
30081;BME280;16902;50.816;12.828;2022-11-15T05:37:20;97509.59;;;-0.02;100.00
30081;BME280;16902;50.816;12.828;2022-11-15T05:42:40;97508.13;;;-0.04;100.00
30081;BME280;16902;50.816;12.828;2022-11-15T05:48:06;97499.16;;;-0.10;100.00
30081;BME280;16902;50.816;12.828;2022-11-15T05:53:27;97495.88;;;-0.01;100.00
30081;BME280;16902;50.816;12.828;2022-11-15T05:58:48;97500.28;;;0.09;100.00
30081;BME280;16902;50.816;12.828;2022-11-15T06:04:08;97494.25;;;0.10;100.00
30081;BME280;16902;50.816;12.828;2022-11-15T06:09:29;97494.06;;;0.22;100.00
30081;BME280;16902;50.816;12.828;2022-11-15T06:14:49;97495.94;;;0.20;100.00
30081;BME280;16902;50.816;12.828;2022-11-15T06:20:10;97501.34;;;0.06;100.00
30081;BME280;16902;50.816;12.828;2022-11-15T06:25:31;97505.66;;;0.06;100.00
30081;BME280;16902;50.816;12.828;2022-11-15T06:30:51;97504.59;;;0.08;100.00
30081;BME280;16902;50.816;12.828;2022-11-15T06:36:12;97510.97;;;0.14;100.00
30081;BME280;16902;50.816;12.828;2022-11-15T06:41:37;97508.75;;;0.20;100.00
30081;BME280;16902;50.816;12.828;2022-11-15T06:46:57;97507.66;;;0.34;100.00
30081;BME280;16902;50.816;12.828;2022-11-15T06:52:17;97513.91;;;0.41;100.00
30081;BME280;16902;50.816;12.828;2022-11-15T06:57:49;97510.75;;;0.49;100.00
30081;BME280;16902;50.816;12.828;2022-11-15T07:03:10;97514.44;;;0.56;100.00
30081;BME280;16902;50.816;12.828;2022-11-15T07:08:31;97502.72;;;0.74;100.00
30081;BME280;16902;50.816;12.828;2022-11-15T07:13:51;97506.56;;;0.90;100.00
30081;BME280;16902;50.816;12.828;2022-11-15T07:19:11;97522.25;;;0.96;100.00
30081;BME280;16902;50.816;12.828;2022-11-15T07:24:31;97511.16;;;1.07;100.00
30081;BME280;16902;50.816;12.828;2022-11-15T07:29:52;97512.13;;;1.16;100.00
30081;BME280;16902;50.816;12.828;2022-11-15T07:35:12;97502.63;;;1.27;100.00
30081;BME280;16902;50.816;12.828;2022-11-15T07:40:32;97506.06;;;1.47;100.00
30081;BME280;16902;50.816;12.828;2022-11-15T07:45:53;97510.88;;;1.71;100.00
30081;BME280;16902;50.816;12.828;2022-11-15T07:51:19;97511.19;;;1.88;100.00
30081;BME280;16902;50.816;12.828;2022-11-15T07:56:40;97505.72;;;2.12;100.00
30081;BME280;16902;50.816;12.828;2022-11-15T08:02:01;97503.06;;;2.62;100.00
30081;BME280;16902;50.816;12.828;2022-11-15T08:07:22;97513.69;;;3.05;100.00
30081;BME280;16902;50.816;12.828;2022-11-15T08:12:42;97515.84;;;3.47;100.00
30081;BME280;16902;50.816;12.828;2022-11-15T08:18:09;97505.59;;;4.02;100.00
30081;BME280;16902;50.816;12.828;2022-11-15T08:23:29;97507.16;;;4.49;100.00
30081;BME280;16902;50.816;12.828;2022-11-15T08:28:50;97507.19;;;4.93;100.00
30081;BME280;16902;50.816;12.828;2022-11-15T08:34:10;97496.53;;;5.39;100.00
30081;BME280;16902;50.816;12.828;2022-11-15T08:39:31;97493.81;;;5.83;100.00
30081;BME280;16902;50.816;12.828;2022-11-15T08:44:51;97496.09;;;6.29;100.00
30081;BME280;16902;50.816;12.828;2022-11-15T08:50:11;97488.50;;;6.76;100.00
30081;BME280;16902;50.816;12.828;2022-11-15T08:55:32;97488.13;;;7.28;100.00
30081;BME280;16902;50.816;12.828;2022-11-15T09:00:55;97479.22;;;7.78;100.00
30081;BME280;16902;50.816;12.828;2022-11-15T09:06:16;97469.34;;;8.36;100.00
30081;BME280;16902;50.816;12.828;2022-11-15T09:11:36;97476.78;;;8.85;100.00
30081;BME280;16902;50.816;12.828;2022-11-15T09:16:57;97469.69;;;9.31;100.00
30081;BME280;16902;50.816;12.828;2022-11-15T09:22:18;97462.66;;;9.76;100.00
30081;BME280;16902;50.816;12.828;2022-11-15T09:27:38;97468.69;;;10.13;100.00
30081;BME280;16902;50.816;12.828;2022-11-15T09:32:59;97462.50;;;10.50;100.00
30081;BME280;16902;50.816;12.828;2022-11-15T09:38:26;97457.19;;;10.86;100.00
30081;BME280;16902;50.816;12.828;2022-11-15T09:49:45;97449.44;;;11.62;100.00
30081;BME280;16902;50.816;12.828;2022-11-15T09:55:00;97449.19;;;11.92;100.00
30081;BME280;16902;50.816;12.828;2022-11-15T10:05:46;97438.50;;;12.48;100.00
30081;BME280;16902;50.816;12.828;2022-11-15T10:10:56;97431.25;;;12.76;100.00
30081;BME280;16902;50.816;12.828;2022-11-15T10:27:18;97411.25;;;13.48;100.00
30081;BME280;16902;50.816;12.828;2022-11-15T10:32:21;97400.16;;;13.59;100.00
30081;BME280;16902;50.816;12.828;2022-11-15T10:37:31;97392.88;;;13.68;100.00
30081;BME280;16902;50.816;12.828;2022-11-15T10:42:33;97391.75;;;14.27;100.00
30081;BME280;16902;50.816;12.828;2022-11-15T10:47:35;97386.66;;;15.07;100.00
30081;BME280;16902;50.816;12.828;2022-11-15T10:52:45;97375.50;;;16.27;100.00
30081;BME280;16902;50.816;12.828;2022-11-15T10:57:52;97366.84;;;17.32;100.00
30081;BME280;16902;50.816;12.828;2022-11-15T11:03:03;97369.38;;;18.41;100.00
30081;BME280;16902;50.816;12.828;2022-11-15T11:13:23;97369.16;;;20.03;100.00
30081;BME280;16902;50.816;12.828;2022-11-15T11:18:35;97357.34;;;18.62;100.00
30081;BME280;16902;50.816;12.828;2022-11-15T11:29:30;97339.94;;;18.44;100.00
30081;BME280;16902;50.816;12.828;2022-11-15T11:40:35;97320.84;;;16.94;100.00
30081;BME280;16902;50.816;12.828;2022-11-15T11:45:51;97309.56;;;18.42;100.00
30081;BME280;16902;50.816;12.828;2022-11-15T11:51:05;97313.38;;;19.29;100.00
30081;BME280;16902;50.816;12.828;2022-11-15T11:56:23;97301.66;;;19.90;100.00
30081;BME280;16902;50.816;12.828;2022-11-15T12:01:37;97296.69;;;19.94;100.00
30081;BME280;16902;50.816;12.828;2022-11-15T12:17:16;97294.50;;;21.75;86.58
30081;BME280;16902;50.816;12.828;2022-11-15T12:22:43;97282.09;;;22.47;78.05
30081;BME280;16902;50.816;12.828;2022-11-15T12:33:03;97272.44;;;22.97;73.04
30081;BME280;16902;50.816;12.828;2022-11-15T12:38:09;97263.28;;;22.18;73.69
30081;BME280;16902;50.816;12.828;2022-11-15T13:14:53;97227.78;;;15.66;100.00
30081;BME280;16902;50.816;12.828;2022-11-15T13:25:03;97226.88;;;14.39;100.00
30081;BME280;16902;50.816;12.828;2022-11-15T13:30:14;97220.41;;;14.17;100.00
30081;BME280;16902;50.816;12.828;2022-11-15T13:35:22;97212.25;;;13.88;100.00
30081;BME280;16902;50.816;12.828;2022-11-15T13:40:29;97213.28;;;14.05;100.00
30081;BME280;16902;50.816;12.828;2022-11-15T13:45:35;97218.59;;;13.74;100.00
30081;BME280;16902;50.816;12.828;2022-11-15T13:50:38;97204.47;;;13.75;100.00
30081;BME280;16902;50.816;12.828;2022-11-15T13:55:41;97206.50;;;13.73;100.00
30081;BME280;16902;50.816;12.828;2022-11-15T14:00:44;97201.53;;;13.65;100.00
30081;BME280;16902;50.816;12.828;2022-11-15T14:06:14;97196.25;;;13.46;100.00
30081;BME280;16902;50.816;12.828;2022-11-15T14:11:19;97201.13;;;13.36;100.00
30081;BME280;16902;50.816;12.828;2022-11-15T14:16:21;97193.56;;;13.21;100.00
30081;BME280;16902;50.816;12.828;2022-11-15T14:21:33;97174.13;;;13.10;100.00
30081;BME280;16902;50.816;12.828;2022-11-15T14:26:35;97178.09;;;12.75;100.00
30081;BME280;16902;50.816;12.828;2022-11-15T14:31:37;97172.81;;;12.30;100.00
30081;BME280;16902;50.816;12.828;2022-11-15T14:36:44;97166.25;;;11.81;100.00
30081;BME280;16902;50.816;12.828;2022-11-15T14:41:46;97167.81;;;11.36;100.00
30081;BME280;16902;50.816;12.828;2022-11-15T14:46:47;97153.13;;;10.95;100.00
30081;BME280;16902;50.816;12.828;2022-11-15T14:51:49;97151.66;;;10.72;100.00
30081;BME280;16902;50.816;12.828;2022-11-15T14:56:51;97139.00;;;10.56;100.00
30081;BME280;16902;50.816;12.828;2022-11-15T15:01:53;97133.66;;;10.29;100.00
30081;BME280;16902;50.816;12.828;2022-11-15T15:06:54;97131.16;;;10.15;100.00
30081;BME280;16902;50.816;12.828;2022-11-15T15:11:56;97129.59;;;9.86;100.00
30081;BME280;16902;50.816;12.828;2022-11-15T15:17:03;97127.47;;;9.40;100.00
30081;BME280;16902;50.816;12.828;2022-11-15T15:22:11;97134.13;;;8.99;100.00
30081;BME280;16902;50.816;12.828;2022-11-15T15:27:15;97128.13;;;8.63;100.00
30081;BME280;16902;50.816;12.828;2022-11-15T15:32:16;97119.72;;;8.46;100.00
30081;BME280;16902;50.816;12.828;2022-11-15T15:37:25;97122.19;;;8.03;100.00
30081;BME280;16902;50.816;12.828;2022-11-15T15:42:27;97106.44;;;7.75;100.00
30081;BME280;16902;50.816;12.828;2022-11-15T15:47:29;97110.13;;;7.43;100.00
30081;BME280;16902;50.816;12.828;2022-11-15T15:52:30;97103.56;;;7.17;100.00
30081;BME280;16902;50.816;12.828;2022-11-15T15:57:32;97099.88;;;7.12;100.00
30081;BME280;16902;50.816;12.828;2022-11-15T16:02:33;97096.03;;;6.85;100.00
30081;BME280;16902;50.816;12.828;2022-11-15T16:07:41;97095.63;;;6.73;100.00
30081;BME280;16902;50.816;12.828;2022-11-15T16:12:44;97096.06;;;6.54;100.00
30081;BME280;16902;50.816;12.828;2022-11-15T16:17:50;97087.13;;;6.33;100.00
30081;BME280;16902;50.816;12.828;2022-11-15T16:22:52;97089.16;;;6.15;100.00
30081;BME280;16902;50.816;12.828;2022-11-15T16:27:54;97079.66;;;5.99;100.00
30081;BME280;16902;50.816;12.828;2022-11-15T16:32:55;97064.06;;;5.76;100.00
30081;BME280;16902;50.816;12.828;2022-11-15T16:37:57;97079.41;;;5.70;100.00
30081;BME280;16902;50.816;12.828;2022-11-15T16:42:59;97074.72;;;5.73;100.00
30081;BME280;16902;50.816;12.828;2022-11-15T16:48:03;97089.78;;;5.61;100.00
30081;BME280;16902;50.816;12.828;2022-11-15T16:53:05;97085.91;;;5.41;100.00
30081;BME280;16902;50.816;12.828;2022-11-15T16:58:08;97090.00;;;5.19;100.00
30081;BME280;16902;50.816;12.828;2022-11-15T17:03:10;97084.66;;;5.12;100.00
30081;BME280;16902;50.816;12.828;2022-11-15T17:08:12;97084.50;;;5.06;100.00
30081;BME280;16902;50.816;12.828;2022-11-15T17:13:14;97071.28;;;4.84;100.00
30081;BME280;16902;50.816;12.828;2022-11-15T17:18:15;97065.31;;;4.68;100.00
30081;BME280;16902;50.816;12.828;2022-11-15T17:23:17;97063.22;;;4.55;100.00
30081;BME280;16902;50.816;12.828;2022-11-15T17:28:19;97059.81;;;4.46;100.00
30081;BME280;16902;50.816;12.828;2022-11-15T17:33:20;97069.16;;;4.47;100.00
30081;BME280;16902;50.816;12.828;2022-11-15T17:38:23;97063.03;;;4.56;100.00
30081;BME280;16902;50.816;12.828;2022-11-15T17:43:24;97061.25;;;4.41;100.00
30081;BME280;16902;50.816;12.828;2022-11-15T17:48:26;97058.28;;;4.19;100.00
30081;BME280;16902;50.816;12.828;2022-11-15T17:53:38;97062.13;;;4.15;100.00
30081;BME280;16902;50.816;12.828;2022-11-15T17:58:41;97054.38;;;4.07;100.00
30081;BME280;16902;50.816;12.828;2022-11-15T18:03:43;97065.28;;;4.01;100.00
30081;BME280;16902;50.816;12.828;2022-11-15T18:08:46;97055.47;;;3.96;100.00
30081;BME280;16902;50.816;12.828;2022-11-15T18:13:57;97049.44;;;3.79;100.00
30081;BME280;16902;50.816;12.828;2022-11-15T18:18:59;97051.00;;;3.64;100.00
30081;BME280;16902;50.816;12.828;2022-11-15T18:24:01;97044.06;;;3.65;100.00
30081;BME280;16902;50.816;12.828;2022-11-15T18:29:03;97049.28;;;3.47;100.00
30081;BME280;16902;50.816;12.828;2022-11-15T18:34:05;97044.09;;;3.39;100.00
30081;BME280;16902;50.816;12.828;2022-11-15T18:39:09;97041.66;;;3.37;100.00
30081;BME280;16902;50.816;12.828;2022-11-15T18:44:42;97036.84;;;3.34;100.00
30081;BME280;16902;50.816;12.828;2022-11-15T18:49:43;97031.06;;;3.14;100.00
30081;BME280;16902;50.816;12.828;2022-11-15T18:54:45;97023.00;;;3.09;100.00
30081;BME280;16902;50.816;12.828;2022-11-15T18:59:47;97016.56;;;3.05;100.00
30081;BME280;16902;50.816;12.828;2022-11-15T19:04:48;97019.78;;;3.07;100.00
30081;BME280;16902;50.816;12.828;2022-11-15T19:09:50;97012.81;;;2.99;100.00
30081;BME280;16902;50.816;12.828;2022-11-15T19:14:51;97009.84;;;2.86;100.00
30081;BME280;16902;50.816;12.828;2022-11-15T19:19:53;97001.91;;;2.79;100.00
30081;BME280;16902;50.816;12.828;2022-11-15T19:24:55;97007.41;;;2.84;100.00
30081;BME280;16902;50.816;12.828;2022-11-15T19:29:56;97006.75;;;2.82;100.00
30081;BME280;16902;50.816;12.828;2022-11-15T19:34:58;96996.06;;;2.69;100.00
30081;BME280;16902;50.816;12.828;2022-11-15T19:40:00;96994.09;;;2.63;100.00
30081;BME280;16902;50.816;12.828;2022-11-15T19:45:02;96979.84;;;2.51;100.00
30081;BME280;16902;50.816;12.828;2022-11-15T19:50:03;96980.97;;;2.48;100.00
30081;BME280;16902;50.816;12.828;2022-11-15T19:55:06;96981.91;;;2.29;100.00
30081;BME280;16902;50.816;12.828;2022-11-15T20:00:08;96973.97;;;2.41;100.00
30081;BME280;16902;50.816;12.828;2022-11-15T20:05:10;96966.16;;;2.42;100.00
30081;BME280;16902;50.816;12.828;2022-11-15T20:10:18;96965.34;;;2.24;100.00
30081;BME280;16902;50.816;12.828;2022-11-15T20:15:21;96963.22;;;2.19;100.00
30081;BME280;16902;50.816;12.828;2022-11-15T20:20:23;96959.09;;;2.09;100.00
30081;BME280;16902;50.816;12.828;2022-11-15T20:25:24;96963.72;;;2.05;100.00
30081;BME280;16902;50.816;12.828;2022-11-15T20:30:26;96958.81;;;1.94;100.00
30081;BME280;16902;50.816;12.828;2022-11-15T20:35:27;96955.88;;;1.89;100.00
30081;BME280;16902;50.816;12.828;2022-11-15T20:40:29;96948.22;;;1.79;100.00
30081;BME280;16902;50.816;12.828;2022-11-15T20:45:32;96950.44;;;1.64;100.00
30081;BME280;16902;50.816;12.828;2022-11-15T20:50:34;96942.41;;;1.77;100.00
30081;BME280;16902;50.816;12.828;2022-11-15T20:55:47;96955.88;;;1.89;100.00
30081;BME280;16902;50.816;12.828;2022-11-15T21:00:54;96951.06;;;1.76;100.00
30081;BME280;16902;50.816;12.828;2022-11-15T21:05:56;96941.50;;;1.50;100.00
30081;BME280;16902;50.816;12.828;2022-11-15T21:10:58;96931.53;;;1.47;100.00
30081;BME280;16902;50.816;12.828;2022-11-15T21:16:17;96926.00;;;1.42;100.00
30081;BME280;16902;50.816;12.828;2022-11-15T21:21:19;96933.06;;;1.40;100.00
30081;BME280;16902;50.816;12.828;2022-11-15T21:26:21;96930.75;;;1.37;100.00
30081;BME280;16902;50.816;12.828;2022-11-15T21:31:23;96921.22;;;1.29;100.00
30081;BME280;16902;50.816;12.828;2022-11-15T21:36:24;96909.53;;;1.17;100.00
30081;BME280;16902;50.816;12.828;2022-11-15T21:41:26;96897.94;;;1.13;100.00
30081;BME280;16902;50.816;12.828;2022-11-15T21:46:29;96896.13;;;1.23;100.00
30081;BME280;16902;50.816;12.828;2022-11-15T21:51:31;96884.66;;;1.27;100.00
30081;BME280;16902;50.816;12.828;2022-11-15T21:56:33;96886.25;;;1.28;100.00
30081;BME280;16902;50.816;12.828;2022-11-15T22:01:35;96875.63;;;1.23;100.00
30081;BME280;16902;50.816;12.828;2022-11-15T22:06:55;96875.38;;;1.44;100.00
30081;BME280;16902;50.816;12.828;2022-11-15T22:11:57;96863.44;;;1.53;100.00
30081;BME280;16902;50.816;12.828;2022-11-15T22:16:59;96856.44;;;1.55;100.00
30081;BME280;16902;50.816;12.828;2022-11-15T22:22:01;96850.19;;;1.58;100.00
30081;BME280;16902;50.816;12.828;2022-11-15T22:27:03;96849.91;;;1.61;100.00
30081;BME280;16902;50.816;12.828;2022-11-15T22:32:05;96838.47;;;1.55;100.00
30081;BME280;16902;50.816;12.828;2022-11-15T22:37:06;96839.50;;;1.62;100.00
30081;BME280;16902;50.816;12.828;2022-11-15T22:42:23;96829.16;;;1.72;100.00
30081;BME280;16902;50.816;12.828;2022-11-15T22:47:25;96826.06;;;1.68;100.00
30081;BME280;16902;50.816;12.828;2022-11-15T22:52:27;96810.38;;;1.71;100.00
30081;BME280;16902;50.816;12.828;2022-11-15T22:57:29;96810.53;;;1.70;100.00
30081;BME280;16902;50.816;12.828;2022-11-15T23:02:30;96799.31;;;1.71;100.00
30081;BME280;16902;50.816;12.828;2022-11-15T23:07:32;96795.94;;;1.70;100.00
30081;BME280;16902;50.816;12.828;2022-11-15T23:12:34;96797.78;;;1.60;100.00
30081;BME280;16902;50.816;12.828;2022-11-15T23:17:54;96781.16;;;1.46;100.00
30081;BME280;16902;50.816;12.828;2022-11-15T23:22:58;96786.94;;;1.31;100.00
30081;BME280;16902;50.816;12.828;2022-11-15T23:28:03;96784.53;;;1.01;100.00
30081;BME280;16902;50.816;12.828;2022-11-15T23:33:05;96772.91;;;0.89;100.00
30081;BME280;16902;50.816;12.828;2022-11-15T23:38:25;96780.72;;;0.88;100.00
30081;BME280;16902;50.816;12.828;2022-11-15T23:43:27;96772.09;;;0.89;100.00
30081;BME280;16902;50.816;12.828;2022-11-15T23:48:29;96764.09;;;0.92;100.00
30081;BME280;16902;50.816;12.828;2022-11-15T23:53:31;96764.25;;;0.90;100.00
30081;BME280;16902;50.816;12.828;2022-11-15T23:58:33;96748.28;;;0.79;100.00
